メインページ
METAR-TAF:

METAR-TAF

空港 :

アルマトイ国際空港

アルマトイ, カザフスタン

緯度: 43-14N, 経度: 076-56E, 海抜: 847m

現時点の気象観測

当レポートは15分前の03:00(UTC)に作成
北西の風 4kt、西から北東の間で変化する
気温 14°C
湿度 36%
気圧 1022 hPa
視程10km以上
高度20000ftの雲はほとんどない

METAR: UAAA 210300Z 32002MPS 270V040 9999 FEW200 14/M01 Q1022 R23L/CLRD65 NOSIG

時間: 09:15 (03:15 UTC)

予報

当レポートは4時間15分前の23:00(UTC)に作成
予報は21日の 00時(UTC)から 21日の 24時(UTC)まで有効
北東の風 10kt
視程10km以上
高度5000ftの雲は散在している, 積乱雲.
高度10000ftの千切れ雲あり
確率 40% :
21日の 08時(UTC)から 21日の 14時(UTC)まで一時的に
激しい雷雨
21日の 14時(UTC)から 21日の 15時(UTC)まで徐々に
南/南東の風 10kt

TAF: UAAA 202300Z 2100/2124 04005MPS 9999 SCT050CB BKN100 TX23/2109Z TN06/2101Z PROB40 TEMPO 2108/2114 TS BECMG 2114/2115 16005MPS

4,000以上の空港の気象観測と天気予報(METAR報とTAF報)

利用可能な観測所は地図上に黄色い丸と赤い丸で示す。

丸の上にカーソルを重ねると観測所名を参照できる。

次にクリックすると気象観測と天気予報を参照できる。

マップの切り替え:黒色「×」印の緑ボタンをクリックして拡大、「-」印の緑ボタンをクリックして縮小、緑色の三角印をクリックして隣りの地図に切り替え


METAR-TAF: